Time;durP1;ratioP1;P1;durP2;ratioP2;P2;SDS_P1;SDS_P2;PMS_P1;PMS_P2;Temp;Humidity;BMP_temperature;BMP_pressure;BME280_temperature;BME280_humidity;BME280_pressure;Samples;Min_cycle;Max_cycle;Signal;HPM_P1;HPM_P2
2021/01/29 00:00:44;;;;;;;2.65;1.20;;;10.60;77.00;;;9.52;72.35;97228.66;5040239;28;20411;-75
2021/01/29 00:03:14;;;;;;;2.50;1.35;;;10.50;77.00;;;9.69;71.64;97220.66;5037246;28;20790;-75
2021/01/29 00:05:44;;;;;;;2.40;1.40;;;10.70;76.50;;;9.70;72.02;97215.09;5036234;28;20427;-75
2021/01/29 00:08:12;;;;;;;2.17;1.33;;;10.70;76.50;;;9.57;72.13;97226.06;5036796;28;20809;-77
2021/01/29 00:10:39;;;;;;;3.50;1.77;;;10.60;76.80;;;9.47;72.50;97223.31;5034844;28;20419;-76
2021/01/29 00:13:07;;;;;;;1.48;1.30;;;10.50;77.10;;;9.42;72.88;97209.25;5035840;28;20422;-76
2021/01/29 00:15:34;;;;;;;2.35;1.33;;;10.50;77.50;;;9.37;73.00;97204.72;5036499;28;20418;-76
2021/01/29 00:18:00;;;;;;;2.03;1.40;;;10.40;77.70;;;9.31;73.31;97205.72;5036630;28;20446;-76
2021/01/29 00:20:28;;;;;;;2.00;1.33;;;10.40;78.00;;;9.25;73.76;97194.28;5036938;28;20418;-76
2021/01/29 00:22:56;;;;;;;3.38;1.67;;;10.30;78.20;;;9.28;73.67;97182.41;5037772;28;20411;-77
2021/01/29 00:25:26;;;;;;;3.03;1.30;;;10.30;78.50;;;9.32;74.02;97180.91;5038657;28;20836;-76
2021/01/29 00:27:52;;;;;;;1.30;1.17;;;10.30;78.60;;;9.24;74.11;97170.78;5037095;28;20846;-76
2021/01/29 00:30:21;;;;;;;2.65;1.58;;;10.30;78.70;;;9.21;74.49;97165.97;5036463;28;20867;-76
2021/01/29 00:32:48;;;;;;;3.58;1.20;;;10.20;78.90;;;9.15;74.73;97154.56;5035901;28;20957;-76
2021/01/29 00:35:16;;;;;;;2.13;1.40;;;10.20;79.30;;;9.18;74.97;97153.25;5035313;28;20415;-76
2021/01/29 00:37:42;;;;;;;1.20;1.10;;;10.20;79.70;;;9.13;75.33;97146.06;5019299;28;20495;-76
2021/01/29 00:40:10;;;;;;;1.42;1.30;;;10.20;79.80;;;9.11;75.57;97152.66;5036556;28;20492;-76
2021/01/29 00:42:38;;;;;;;4.30;1.15;;;10.10;80.10;;;9.37;75.11;97159.81;5037947;28;20426;-76
2021/01/29 00:45:08;;;;;;;2.10;1.30;;;10.20;80.20;;;9.41;74.48;97168.81;5036316;28;20513;-76
2021/01/29 00:47:34;;;;;;;1.27;1.15;;;10.40;79.60;;;9.58;74.17;97166.88;5018095;28;20463;-76
2021/01/29 00:50:01;;;;;;;1.50;1.15;;;10.50;79.60;;;9.55;74.37;97164.72;5016850;28;20504;-76
2021/01/29 00:52:27;;;;;;;1.30;1.20;;;10.50;79.30;;;9.51;74.75;97162.84;5034625;28;20699;-77
2021/01/29 00:54:54;;;;;;;1.80;1.30;;;10.50;79.40;;;9.39;75.23;97163.00;5034617;28;20403;-76
2021/01/29 00:57:20;;;;;;;3.17;1.30;;;10.40;79.70;;;9.30;75.63;97146.00;5034392;28;20414;-75
2021/01/29 00:59:47;;;;;;;1.30;1.20;;;10.40;80.20;;;9.30;75.88;97140.72;5034507;28;20701;-77
2021/01/29 01:02:13;;;;;;;1.70;1.30;;;10.30;80.60;;;9.29;76.17;97133.84;5035050;28;20441;-77
2021/01/29 01:04:39;;;;;;;1.88;1.20;;;10.30;80.80;;;9.28;76.18;97135.69;5035932;28;20419;-75
2021/01/29 01:07:05;;;;;;;1.20;1.10;;;10.30;80.90;;;9.22;76.26;97128.75;5034909;28;20419;-77
2021/01/29 01:09:31;;;;;;;1.43;1.10;;;10.20;81.00;;;9.23;76.33;97122.44;5034984;28;20441;-77
2021/01/29 01:11:58;;;;;;;1.33;1.23;;;10.20;81.00;;;9.23;76.59;97114.50;5035892;28;20510;-75
2021/01/29 01:14:24;;;;;;;1.50;1.40;;;10.30;81.20;;;9.23;76.59;97106.59;5035731;28;20495;-76
2021/01/29 01:16:51;;;;;;;1.40;1.30;;;10.20;81.20;;;9.22;76.54;97105.00;5019555;28;20414;-75
2021/01/29 01:19:17;;;;;;;3.20;1.30;;;10.30;81.20;;;9.37;76.32;97099.06;5039239;28;20414;-75
2021/01/29 01:21:43;;;;;;;2.95;1.48;;;10.20;81.30;;;9.28;76.29;97093.41;5035853;28;20797;-75
2021/01/29 01:24:10;;;;;;;2.22;1.40;;;10.30;81.10;;;9.22;76.73;97088.34;5033594;28;20897;-75
2021/01/29 01:26:36;;;;;;;4.60;1.70;;;10.20;81.20;;;9.27;76.62;97078.63;5035685;28;20414;-75
2021/01/29 01:29:03;;;;;;;4.30;1.55;;;10.30;81.20;;;9.21;76.91;97071.69;5035017;28;20500;-75
2021/01/29 01:31:29;;;;;;;2.10;1.30;;;10.30;81.50;;;9.44;76.19;97075.06;5035023;28;20452;-76
2021/01/29 01:33:56;;;;;;;3.20;1.40;;;10.30;81.50;;;9.22;76.35;97054.81;5035021;28;20415;-76
2021/01/29 01:36:22;;;;;;;1.67;1.30;;;10.30;81.20;;;9.26;76.72;97053.25;5018628;28;20764;-75
2021/01/29 01:38:49;;;;;;;2.50;1.53;;;10.30;81.40;;;9.20;76.95;97053.47;5036243;28;20493;-76
2021/01/29 01:41:15;;;;;;;2.10;1.25;;;10.20;81.50;;;9.16;77.04;97041.81;5036272;28;20422;-76
2021/01/29 01:43:41;;;;;;;4.20;1.30;;;10.20;81.90;;;9.14;77.51;97035.97;5039936;28;20752;-77
2021/01/29 01:46:10;;;;;;;2.60;1.50;;;10.20;82.10;;;9.14;77.51;97026.22;5051380;28;20573;-75
2021/01/29 01:48:48;;;;;;;2.45;1.40;;;10.10;82.10;;;9.15;77.48;97027.81;5050857;28;20455;-75
2021/01/29 01:51:33;;;;;;;5.10;1.60;;;10.20;82.30;;;9.10;77.66;97019.03;5042374;28;20403;-76
2021/01/29 01:54:04;;;;;;;1.95;1.40;;;10.20;82.40;;;9.21;77.69;97023.38;5044439;28;20415;-75
2021/01/29 01:56:44;;;;;;;3.40;1.35;;;10.10;82.40;;;9.21;77.30;97018.88;5049362;28;20407;-75
2021/01/29 01:59:16;;;;;;;2.55;1.40;;;10.20;82.30;;;9.46;76.53;97018.31;5048736;28;20421;-75
2021/01/29 02:01:44;;;;;;;3.97;1.50;;;10.40;81.80;;;9.38;76.64;97013.47;5034093;28;20590;-76
2021/01/29 02:04:13;;;;;;;4.28;1.50;;;10.40;81.50;;;9.23;77.12;97002.78;5039062;28;20595;-75
2021/01/29 02:06:54;;;;;;;2.35;1.40;;;10.30;81.80;;;9.16;77.32;96991.66;5038894;28;20445;-75
2021/01/29 02:09:23;;;;;;;2.10;1.30;;;10.20;82.10;;;9.15;77.50;96990.03;5038855;28;20498;-76
2021/01/29 02:11:50;;;;;;;2.70;1.30;;;10.20;82.30;;;9.11;77.71;96979.19;5040468;28;20554;-77
2021/01/29 02:14:17;;;;;;;2.08;1.30;;;10.10;82.40;;;9.13;77.70;96971.81;5038291;28;20475;-76
2021/01/29 02:16:52;;;;;;;1.45;1.20;;;10.10;82.50;;;9.15;77.84;96969.72;5038536;28;20417;-76
2021/01/29 02:20:16;;;;;;;3.15;1.38;;;10.10;82.70;;;9.08;77.87;96971.78;5038267;28;20479;-76
2021/01/29 02:23:34;;;;;;;1.40;1.30;;;10.10;82.70;;;9.10;77.90;96963.56;5038906;28;20423;-76
2021/01/29 02:26:47;;;;;;;2.17;1.30;;;10.20;82.50;;;9.11;77.69;96957.25;5038931;28;20478;-76
2021/01/29 02:30:01;;;;;;;1.20;1.10;;;10.20;82.70;;;9.09;78.05;96954.09;5037814;28;20713;-77
2021/01/29 02:33:30;;;;;;;2.47;1.27;;;10.10;82.80;;;9.07;78.21;96956.19;5036172;28;20422;-76
2021/01/29 02:36:35;;;;;;;2.10;1.38;;;10.10;83.00;;;9.14;77.81;96949.63;5053647;28;20502;-76
2021/01/29 02:39:44;;;;;;;2.40;1.30;;;10.20;82.90;;;9.12;77.84;96932.44;5038573;28;20866;-76
2021/01/29 02:42:35;;;;;;;1.20;1.10;;;10.20;82.80;;;9.12;78.05;96927.16;5038328;28;20877;-77
2021/01/29 02:45:19;;;;;;;1.90;1.23;;;10.20;82.90;;;9.15;78.01;96921.38;5038373;28;20870;-77
2021/01/29 02:47:55;;;;;;;1.38;1.10;;;10.20;82.90;;;9.16;77.90;96920.34;5036930;28;20758;-77
2021/01/29 02:50:35;;;;;;;1.50;1.40;;;10.20;82.80;;;9.15;77.60;96911.63;5036003;28;20515;-77
2021/01/29 02:53:09;;;;;;;1.30;1.20;;;10.20;82.50;;;9.15;77.73;96895.78;5037414;28;20971;-76
2021/01/29 02:55:45;;;;;;;1.50;1.10;;;10.20;82.40;;;9.12;77.56;96901.56;5036743;28;20816;-76
2021/01/29 02:58:18;;;;;;;1.20;0.90;;;10.20;82.50;;;9.11;77.61;96884.13;5052528;28;20854;-76
2021/01/29 03:00:50;;;;;;;1.38;1.00;;;10.10;82.40;;;9.14;77.47;96888.09;5038896;28;20486;-78
2021/01/29 03:03:23;;;;;;;2.30;1.42;;;10.20;82.40;;;9.16;77.23;96886.03;5037461;28;20419;-78
2021/01/29 03:05:55;;;;;;;2.45;1.10;;;10.20;82.10;;;9.20;77.30;96885.25;5037044;28;20580;-77
2021/01/29 03:08:26;;;;;;;1.30;1.10;;;10.20;82.10;;;9.16;77.22;96881.53;5037287;28;20790;-77
2021/01/29 03:11:01;;;;;;;1.90;1.00;;;10.20;82.10;;;9.13;77.31;96883.88;5037354;28;20493;-79
2021/01/29 03:13:34;;;;;;;1.70;1.00;;;10.20;82.10;;;9.17;77.15;96871.78;5037598;28;20761;-77
2021/01/29 03:16:06;;;;;;;1.35;1.02;;;10.20;82.40;;;9.13;77.12;96875.94;5037729;28;20410;-77
2021/01/29 03:18:42;;;;;;;1.00;0.90;;;10.20;82.00;;;9.20;77.13;96868.59;5037296;28;20419;-77
2021/01/29 03:21:15;;;;;;;1.02;0.95;;;10.10;82.00;;;9.27;76.40;96874.47;5038026;28;20425;-77
2021/01/29 03:23:48;;;;;;;1.60;1.10;;;10.20;81.60;;;9.27;76.41;96869.97;5038302;28;20419;-77
2021/01/29 03:26:21;;;;;;;1.92;1.10;;;10.30;81.50;;;9.26;76.39;96864.94;5039283;28;20419;-77
2021/01/29 03:28:54;;;;;;;1.50;1.15;;;10.30;81.20;;;9.28;76.26;96862.84;5038884;28;20717;-78
2021/01/29 03:31:22;;;;;;;1.08;0.90;;;10.30;81.10;;;9.32;76.09;96856.78;5039964;28;20410;-78
2021/01/29 03:34:00;;;;;;;1.13;0.90;;;10.30;80.80;;;9.30;75.90;96851.00;5042269;28;20443;-78
2021/01/29 03:36:34;;;;;;;2.00;1.00;;;10.30;81.00;;;9.30;76.10;96850.19;5046380;28;20531;-78
2021/01/29 03:39:09;;;;;;;1.58;1.00;;;10.30;81.00;;;9.41;75.62;96840.47;5055351;28;20419;-78
2021/01/29 03:41:40;;;;;;;1.58;1.10;;;10.40;80.70;;;9.31;75.71;96836.75;5037229;28;20407;-78
2021/01/29 03:44:18;;;;;;;1.45;1.10;;;10.30;80.60;;;9.39;75.63;96835.47;5049549;28;20454;-78
2021/01/29 03:46:55;;;;;;;1.40;1.10;;;10.40;80.50;;;9.40;75.19;96830.97;5040155;28;20506;-78
2021/01/29 03:49:43;;;;;;;1.88;1.10;;;10.40;80.30;;;9.30;75.72;96823.78;5022334;28;20415;-78
2021/01/29 03:52:18;;;;;;;0.90;0.90;;;10.30;80.40;;;9.37;75.35;96815.63;5040238;28;20555;-78
2021/01/29 03:54:58;;;;;;;3.60;1.23;;;10.30;80.40;;;9.33;75.61;96812.69;5040345;28;20415;-78
2021/01/29 03:57:32;;;;;;;2.10;1.20;;;10.30;80.60;;;9.40;75.32;96815.88;5039629;28;20411;-78
2021/01/29 04:00:18;;;;;;;2.45;1.10;;;10.40;80.40;;;9.33;75.53;96810.84;5022320;28;20686;-78
2021/01/29 04:03:01;;;;;;;2.05;1.10;;;10.40;80.40;;;9.30;75.99;96806.09;5039480;28;20418;-78
2021/01/29 04:05:36;;;;;;;1.38;1.13;;;10.30;80.60;;;9.28;76.15;96784.41;5041023;28;20480;-77
2021/01/29 04:08:09;;;;;;;1.60;1.20;;;10.30;80.90;;;9.28;75.84;96783.63;5041619;28;20513;-78
2021/01/29 04:10:36;;;;;;;3.00;1.30;;;10.30;80.80;;;9.23;75.85;96775.69;5025499;28;20411;-77
2021/01/29 04:13:10;;;;;;;1.40;1.30;;;10.30;80.80;;;9.35;75.49;96778.09;5046548;28;20633;-77
2021/01/29 04:15:43;;;;;;;2.17;1.00;;;10.30;80.40;;;9.28;75.86;96780.97;5053361;28;20544;-77
2021/01/29 04:18:18;;;;;;;4.20;1.17;;;10.30;80.60;;;9.35;75.62;96770.97;5053825;28;20430;-77
2021/01/29 04:20:50;;;;;;;2.80;1.00;;;10.30;81.40;;;9.31;75.94;96757.50;5051989;28;20496;-77
2021/01/29 04:23:25;;;;;;;2.00;1.10;;;10.30;80.70;;;9.33;75.71;96744.00;5041136;28;20705;-77
2021/01/29 04:25:59;;;;;;;2.23;1.10;;;10.30;80.80;;;9.33;75.01;96733.44;5040233;28;20481;-77
2021/01/29 04:28:33;;;;;;;1.30;1.10;;;10.40;79.90;;;9.39;74.97;96729.00;5040356;28;20407;-78
2021/01/29 04:31:02;;;;;;;1.30;1.17;;;10.40;79.90;;;9.39;75.10;96731.66;5040873;28;20502;-77
2021/01/29 04:33:38;;;;;;;1.15;1.05;;;10.40;79.70;;;9.31;74.95;96715.25;5038817;28;20414;-78
2021/01/29 04:36:08;;;;;;;1.77;1.00;;;10.30;79.70;;;9.30;75.03;96707.56;5039673;28;20430;-78
2021/01/29 04:38:44;;;;;;;2.50;1.15;;;10.30;79.90;;;9.28;74.84;96707.03;5036787;28;20426;-78
2021/01/29 04:41:33;;;;;;;4.68;1.20;;;10.30;79.60;;;9.24;75.02;96703.34;5040037;28;20950;-78
2021/01/29 04:44:26;;;;;;;3.97;1.40;;;10.20;79.80;;;9.18;75.38;96697.22;5041364;28;20534;-78
2021/01/29 04:47:14;;;;;;;2.05;1.08;;;10.20;80.10;;;9.16;75.42;96695.91;5029956;28;20457;-78
2021/01/29 04:50:07;;;;;;;1.80;1.00;;;10.20;80.10;;;9.21;74.95;96678.22;5042541;28;20407;-78
2021/01/29 04:53:36;;;;;;;1.00;0.90;;;10.20;80.10;;;9.20;75.18;96666.06;5041999;28;20411;-78
2021/01/29 04:56:29;;;;;;;1.30;1.10;;;10.20;80.00;;;9.14;75.61;96661.03;5044235;28;20484;-78
2021/01/29 04:59:27;;;;;;;1.00;1.00;;;10.20;80.20;;;9.16;75.42;96653.66;5050503;28;20499;-77
2021/01/29 05:02:38;;;;;;;1.30;1.20;;;10.10;80.60;;;9.17;75.93;96650.75;5050116;28;20418;-78
2021/01/29 05:05:40;;;;;;;1.80;1.10;;;10.10;80.60;;;9.13;75.98;96633.03;5029625;28;20450;-78
2021/01/29 05:08:46;;;;;;;1.40;1.10;;;10.10;80.80;;;9.05;76.42;96628.28;5046242;28;20506;-77
2021/01/29 05:11:56;;;;;;;2.85;1.10;;;10.10;81.90;;;9.01;76.65;96630.66;5046158;28;20460;-77
2021/01/29 05:14:56;;;;;;;1.30;1.20;;;10.00;81.30;;;9.08;76.61;96627.75;5048441;28;20785;-77
2021/01/29 05:18:14;;;;;;;2.10;1.03;;;10.10;81.30;;;9.03;76.86;96628.53;5049835;28;20426;-77
2021/01/29 05:20:58;;;;;;;1.17;1.10;;;10.10;81.40;;;9.01;76.82;96621.94;5033978;28;20423;-79
2021/01/29 05:23:57;;;;;;;1.80;1.20;;;10.00;81.60;;;9.12;76.71;96621.69;5044754;28;20415;-79
2021/01/29 05:27:09;;;;;;;2.65;1.23;;;10.00;81.80;;;9.16;76.47;96627.25;5023548;28;20440;-79
2021/01/29 05:30:00;;;;;;;3.80;1.40;;;10.20;81.40;;;9.28;76.80;96611.97;5040051;28;20772;-78
2021/01/29 05:32:52;;;;;;;1.58;1.00;;;10.20;82.00;;;9.27;76.58;96599.81;5042249;28;20456;-78
2021/01/29 05:35:36;;;;;;;7.90;1.20;;;10.20;81.70;;;9.16;77.02;96596.38;5041427;28;20854;-78
2021/01/29 05:38:38;;;;;;;1.10;1.00;;;10.20;81.80;;;9.14;76.82;96580.00;5041219;28;20478;-78
2021/01/29 05:41:53;;;;;;;1.10;0.95;;;10.20;81.90;;;9.13;76.91;96583.69;5041904;28;20415;-78
2021/01/29 05:45:14;;;;;;;1.30;1.20;;;10.10;81.90;;;9.10;76.94;96562.28;5040373;28;20509;-78
2021/01/29 05:48:15;;;;;;;2.80;1.20;;;10.10;81.60;;;9.05;77.15;96559.63;5041681;28;20426;-78
2021/01/29 05:51:14;;;;;;;1.90;1.00;;;10.10;82.00;;;8.99;77.01;96548.28;5026237;28;20459;-78
2021/01/29 05:54:25;;;;;;;1.20;1.10;;;10.00;81.70;;;8.98;76.69;96536.13;5026428;28;20497;-78
2021/01/29 05:57:24;;;;;;;1.65;1.35;;;10.00;81.60;;;8.99;76.94;96539.56;5044983;28;20455;-78
2021/01/29 06:00:08;;;;;;;3.65;1.25;;;10.00;81.90;;;8.92;76.69;96540.63;5045871;28;20441;-78
2021/01/29 06:03:27;;;;;;;1.70;1.20;;;9.90;81.70;;;8.89;76.95;96535.06;5040246;28;20746;-77
2021/01/29 06:06:47;;;;;;;1.73;1.42;;;9.90;81.90;;;8.93;76.81;96551.97;5001969;28;20518;-77
2021/01/29 06:10:07;;;;;;;1.93;1.40;;;9.90;81.80;;;8.87;76.92;96560.94;5040458;28;20594;-79
2021/01/29 06:13:00;;;;;;;1.20;1.10;;;9.90;82.00;;;8.97;76.32;96578.63;5021841;28;20944;-79
2021/01/29 06:15:58;;;;;;;1.50;1.40;;;10.00;81.50;;;9.06;76.17;96591.06;5040775;28;20498;-78
2021/01/29 06:18:58;;;;;;;2.63;1.17;;;10.00;81.40;;;9.03;76.51;96607.41;5006318;28;20423;-77
2021/01/29 06:22:15;;;;;;;2.15;1.30;;;10.00;81.40;;;8.97;76.91;96611.09;5043577;28;20423;-78
2021/01/29 06:25:22;;;;;;;4.00;1.30;;;10.00;81.60;;;8.93;77.44;96618.75;5018983;28;20478;-79
2021/01/29 06:28:43;;;;;;;3.63;1.50;;;9.90;82.30;;;9.04;77.71;96642.53;5044761;28;20426;-78
2021/01/29 06:31:59;;;;;;;3.33;2.05;;;9.90;82.90;;;8.88;78.24;96633.75;5048991;28;20483;-75
2021/01/29 06:35:13;;;;;;;3.95;1.27;;;9.90;82.90;;;8.88;77.89;96644.31;5051903;28;20474;-76
2021/01/29 06:37:54;;;;;;;2.78;1.13;;;9.90;82.80;;;9.06;77.31;96643.06;5041446;28;20496;-76
2021/01/29 06:40:29;;;;;;;2.40;1.20;;;10.00;82.40;;;8.97;77.26;96634.03;5038214;28;20460;-75
2021/01/29 06:43:41;;;;;;;2.63;1.40;;;10.00;82.20;;;9.12;77.01;96623.53;5038092;28;20472;-76
2021/01/29 06:46:40;;;;;;;1.30;1.10;;;10.00;82.30;;;9.02;77.24;96616.38;5037358;28;20488;-76
2021/01/29 06:49:36;;;;;;;4.35;1.30;;;10.10;82.10;;;9.00;77.62;96626.41;5037321;28;20472;-76
2021/01/29 06:53:20;;;;;;;1.60;1.10;;;10.00;82.40;;;9.14;76.64;96624.88;5037795;28;20526;-76
2021/01/29 06:56:52;;;;;;;2.65;1.33;;;10.10;81.90;;;9.24;76.15;96639.97;5036852;28;20472;-77
2021/01/29 07:00:06;;;;;;;2.55;1.40;;;10.20;81.50;;;9.16;76.05;96627.25;5038051;28;20480;-77
2021/01/29 07:03:35;;;;;;;1.20;1.10;;;10.20;81.10;;;9.21;75.25;96629.91;5044301;28;20437;-79
2021/01/29 07:06:44;;;;;;;1.20;1.10;;;10.20;80.20;;;9.26;73.76;96635.19;5046483;28;20460;-77
2021/01/29 07:09:24;;;;;;;4.87;1.40;;;10.20;78.90;;;9.24;73.53;96645.25;5023632;28;20824;-79
2021/01/29 07:12:17;;;;;;;1.10;0.90;;;10.30;78.50;;;9.30;72.28;96638.91;5039581;28;20444;-78
2021/01/29 07:14:57;;;;;;;2.45;1.20;;;10.30;77.40;;;9.30;70.86;96686.44;5039677;28;20525;-78
2021/01/29 07:17:52;;;;;;;1.10;1.00;;;10.20;76.80;;;9.27;71.50;96665.81;5018728;28;20792;-76
2021/01/29 07:20:50;;;;;;;1.40;1.30;;;10.20;76.60;;;9.16;72.03;96680.88;5035532;28;20477;-77
2021/01/29 07:23:42;;;;;;;2.10;1.13;;;10.20;76.80;;;9.27;70.79;96679.03;5036990;28;20441;-76
2021/01/29 07:26:20;;;;;;;2.40;1.15;;;10.20;75.90;;;9.36;70.50;96681.97;5038609;28;20423;-76
2021/01/29 07:29:09;;;;;;;1.60;1.30;;;10.30;75.70;;;9.34;70.21;96695.44;5038390;28;20505;-75
2021/01/29 07:31:55;;;;;;;2.45;1.17;;;10.30;75.10;;;9.34;70.13;96687.50;5025382;28;20470;-77
2021/01/29 07:34:34;;;;;;;1.97;1.20;;;10.30;75.00;;;9.35;70.30;96685.66;5043053;28;20720;-76
2021/01/29 07:37:38;;;;;;;2.45;1.10;;;10.40;75.30;;;9.45;70.05;96694.41;5046081;28;20476;-77
2021/01/29 07:40:41;;;;;;;1.30;1.10;;;10.40;75.10;;;9.34;70.63;96695.44;5040711;28;20483;-78
2021/01/29 07:43:50;;;;;;;1.90;1.30;;;10.40;75.50;;;9.32;71.14;96700.19;5041240;28;20484;-77
2021/01/29 07:46:47;;;;;;;2.30;1.10;;;10.30;75.60;;;9.39;70.76;96692.03;4990199;28;20596;-77
2021/01/29 07:49:43;;;;;;;1.35;1.20;;;10.30;76.00;;;9.35;70.61;96690.94;5038782;28;20464;-77
2021/01/29 07:52:31;;;;;;;2.08;1.10;;;10.30;75.40;;;9.59;69.16;96690.22;5035810;28;20406;-76
2021/01/29 07:55:20;;;;;;;3.42;1.17;;;10.50;74.30;;;9.63;69.03;96690.47;5036749;28;20464;-78
2021/01/29 07:58:20;;;;;;;1.92;1.50;;;10.60;74.00;;;9.62;69.04;96694.19;5036523;28;20467;-77
2021/01/29 08:01:22;;;;;;;1.38;1.10;;;10.60;73.90;;;9.68;68.29;96701.06;5035947;28;20472;-77
2021/01/29 08:04:43;;;;;;;2.70;1.65;;;10.60;73.20;;;9.64;68.59;96681.50;5035815;28;20836;-77
2021/01/29 08:07:17;;;;;;;1.70;1.20;;;10.60;74.00;;;9.67;68.16;96700.28;5037915;28;20547;-78
2021/01/29 08:09:57;;;;;;;1.45;1.20;;;10.70;72.90;;;9.60;68.71;96698.94;5038699;28;20881;-77
2021/01/29 08:12:25;;;;;;;2.70;1.20;;;10.60;73.30;;;9.76;66.83;96689.19;5039332;28;20489;-77
2021/01/29 08:15:21;;;;;;;2.75;1.20;;;10.70;72.10;;;9.70;68.10;96699.75;5037606;28;20410;-78
2021/01/29 08:18:29;;;;;;;2.97;1.58;;;10.70;72.70;;;9.70;68.49;96691.00;5037995;28;20813;-78
2021/01/29 08:22:05;;;;;;;2.80;1.20;;;10.70;73.10;;;9.78;67.54;96705.56;5038015;28;20551;-78
2021/01/29 08:25:15;;;;;;;1.10;1.00;;;10.70;73.00;;;9.66;68.73;96695.25;5033300;28;20539;-79
2021/01/29 08:28:31;;;;;;;1.77;1.27;;;10.70;73.20;;;9.64;69.41;96695.50;5034450;28;20504;-79
2021/01/29 08:31:32;;;;;;;2.88;1.20;;;10.60;74.00;;;9.65;69.81;96691.00;5040105;28;20441;-77
2021/01/29 08:34:22;;;;;;;1.48;1.20;;;10.60;74.30;;;9.78;69.38;96695.00;5039496;28;20510;-78
2021/01/29 08:37:25;;;;;;;2.05;1.10;;;10.60;74.20;;;9.75;69.58;96682.31;5036860;28;20499;-76
2021/01/29 08:40:03;;;;;;;3.20;1.13;;;10.70;74.50;;;9.78;69.30;96692.34;5018104;28;20492;-76
2021/01/29 08:42:48;;;;;;;1.40;1.05;;;10.70;74.20;;;9.87;68.98;96694.22;5035050;28;20696;-76
2021/01/29 08:45:42;;;;;;;1.30;1.10;;;10.80;74.10;;;9.80;69.82;96687.59;5035808;28;20483;-76
2021/01/29 08:48:36;;;;;;;1.25;1.05;;;10.80;74.30;;;9.69;69.25;96705.31;5033136;28;20488;-76
2021/01/29 08:51:21;;;;;;;2.08;1.25;;;10.70;73.90;;;9.79;68.22;96699.22;5041998;28;20468;-79
2021/01/29 08:54:08;;;;;;;3.35;1.20;;;10.70;72.80;;;9.80;67.49;96711.38;5045062;28;20480;-80
2021/01/29 08:56:50;;;;;;;3.92;1.38;;;10.70;72.40;;;9.76;67.26;96716.41;5049915;28;20738;-79
2021/01/29 08:59:21;;;;;;;2.45;1.40;;;10.70;71.70;;;9.82;64.97;96712.72;5049497;28;20681;-79
2021/01/29 09:01:58;;;;;;;4.07;1.85;;;10.80;69.80;;;9.79;66.03;96715.88;5045581;28;20525;-79
2021/01/29 09:04:33;;;;;;;3.67;1.20;;;10.80;70.50;;;9.78;65.65;96726.72;5046104;28;20407;-79
2021/01/29 09:07:06;;;;;;;2.80;1.52;;;10.80;70.20;;;9.88;65.46;96737.31;5045480;28;20470;-79
2021/01/29 09:09:36;;;;;;;3.72;1.40;;;10.80;70.50;;;9.94;64.30;96741.53;5044944;28;20488;-79
2021/01/29 09:12:12;;;;;;;5.00;1.50;;;10.90;69.00;;;9.93;64.34;96742.59;5049153;28;20466;-79
2021/01/29 09:14:48;;;;;;;2.40;1.65;;;10.90;69.30;;;9.93;64.88;96735.47;5055980;28;20442;-79
2021/01/29 09:17:20;;;;;;;6.45;2.13;;;10.90;69.10;;;9.89;64.61;96747.63;5055560;28;20494;-79
2021/01/29 09:19:56;;;;;;;4.25;1.35;;;10.90;69.30;;;9.85;64.23;96743.13;5050749;28;20470;-79
2021/01/29 09:22:29;;;;;;;2.67;1.40;;;10.80;68.90;;;9.95;63.22;96746.56;5044113;28;20464;-81
2021/01/29 09:25:03;;;;;;;1.77;1.30;;;10.90;67.80;;;9.91;63.23;96745.53;5044108;28;20594;-79
2021/01/29 09:28:01;;;;;;;3.28;1.65;;;10.90;67.40;;;10.05;63.02;96754.53;5044738;28;20525;-79
2021/01/29 09:30:31;;;;;;;1.98;1.27;;;10.90;67.80;;;10.06;63.40;96771.19;5044619;28;20502;-79
2021/01/29 09:33:09;;;;;;;4.25;1.42;;;11.00;67.60;;;10.12;63.15;96766.69;5044140;28;20464;-79
2021/01/29 09:35:57;;;;;;;7.88;3.90;;;11.00;67.80;;;10.24;61.87;96783.91;5046682;28;20478;-80
2021/01/29 09:38:28;;;;;;;4.43;1.48;;;11.20;66.50;;;10.25;61.70;96798.75;5044965;28;20483;-79
2021/01/29 09:41:07;;;;;;;2.80;1.25;;;11.20;66.20;;;10.15;61.50;96822.50;5045841;28;20466;-79
2021/01/29 09:43:56;;;;;;;6.35;1.65;;;11.10;65.50;;;10.21;60.20;96802.19;5047543;28;20475;-79
2021/01/29 09:46:27;;;;;;;5.43;1.65;;;11.20;64.30;;;10.18;60.47;96806.13;5049249;28;20480;-79
2021/01/29 09:49:06;;;;;;;6.22;1.90;;;11.10;64.60;;;10.20;59.35;96796.09;5045289;28;20463;-79
2021/01/29 09:51:52;;;;;;;5.63;2.10;;;11.20;63.60;;;10.22;60.39;96820.44;5047211;28;20482;-79
2021/01/29 09:54:27;;;;;;;5.38;1.70;;;11.20;64.60;;;10.27;60.82;96809.06;5052872;28;20870;-79
2021/01/29 09:57:06;;;;;;;4.90;1.83;;;11.20;65.10;;;10.38;59.65;96816.72;5056703;28;20440;-79
2021/01/29 09:59:45;;;;;;;3.67;1.58;;;11.30;63.90;;;10.37;59.63;96823.09;5075389;28;20399;-77
2021/01/29 10:02:31;;;;;;;4.50;1.65;;;11.30;63.70;;;10.30;59.05;96829.72;5071810;28;20478;-78
2021/01/29 10:05:33;;;;;;;4.88;2.00;;;11.30;62.90;;;10.23;58.43;96823.84;5072991;28;20500;-76
2021/01/29 10:08:16;;;;;;;5.65;2.08;;;11.20;62.90;;;10.29;57.66;96826.28;5062190;28;20425;-79
2021/01/29 10:10:58;;;;;;;7.80;2.10;;;11.20;61.70;;;10.32;57.20;96831.03;5064422;28;20472;-79
2021/01/29 10:13:56;;;;;;;10.32;2.28;;;11.30;61.50;;;10.18;57.62;96827.28;5064279;28;20720;-79
2021/01/29 10:16:53;;;;;;;5.43;1.90;;;11.20;61.60;;;10.31;56.85;96833.91;5063867;28;20420;-79
2021/01/29 10:19:38;;;;;;;5.88;2.03;;;11.20;61.40;;;10.10;56.87;96836.50;5064698;28;20421;-79
2021/01/29 10:23:15;;;;;;;20.40;2.33;;;11.10;60.50;;;9.99;55.69;96839.41;5061685;28;20498;-71
2021/01/29 10:25:57;;;;;;;7.18;1.95;;;11.00;59.60;;;9.85;57.43;96831.13;5020889;28;20479;-71
2021/01/29 10:28:51;;;;;;;8.95;2.45;;;10.90;61.00;;;9.87;58.06;96822.94;5055636;28;20465;-71
2021/01/29 10:31:20;;;;;;;7.47;2.30;;;10.80;61.90;;;9.98;56.84;96829.88;5058850;28;20890;-70
2021/01/29 10:33:49;;;;;;;8.20;2.25;;;10.90;60.60;;;10.00;56.96;96833.81;5067783;28;20490;-71
2021/01/29 10:36:23;;;;;;;11.27;2.33;;;11.00;60.70;;;10.20;55.56;96835.78;5071067;28;20447;-71
2021/01/29 10:39:01;;;;;;;7.97;1.92;;;11.10;59.40;;;10.09;55.96;96840.19;5068063;28;20469;-70
2021/01/29 10:41:35;;;;;;;10.38;2.30;;;11.10;59.80;;;10.16;55.48;96837.31;5064579;28;20453;-71
2021/01/29 10:44:10;;;;;;;9.13;2.08;;;11.10;59.30;;;10.18;55.00;96829.94;5055010;28;20461;-71
2021/01/29 10:47:05;;;;;;;7.88;1.88;;;11.10;59.00;;;10.15;55.74;96840.22;5055022;28;20736;-71
2021/01/29 10:49:45;;;;;;;8.55;2.60;;;11.10;59.60;;;10.35;55.18;96827.84;5054014;28;20752;-70
2021/01/29 10:52:37;;;;;;;8.45;2.25;;;11.30;59.40;;;10.51;54.51;96843.75;5054897;28;20819;-70
2021/01/29 10:55:16;;;;;;;6.18;2.00;;;11.30;58.80;;;10.70;52.68;96842.97;5054323;28;20776;-71
2021/01/29 10:57:56;;;;;;;7.95;2.10;;;11.50;57.20;;;10.57;53.50;96835.56;5037296;28;20449;-70
2021/01/29 11:00:28;;;;;;;7.72;2.22;;;11.50;57.60;;;10.61;53.73;96820.72;5053573;28;20420;-71
2021/01/29 11:03:05;;;;;;;11.95;2.75;;;11.60;57.70;;;10.98;52.70;96846.91;5053715;28;20760;-70
2021/01/29 11:05:33;;;;;;;10.65;2.40;;;11.70;57.30;;;10.98;53.23;96824.94;5055044;28;20562;-71
2021/01/29 11:08:11;;;;;;;10.13;2.25;;;11.80;57.50;;;10.89;53.12;96837.13;5055358;28;20524;-70
2021/01/29 11:10:40;;;;;;;9.60;2.22;;;11.80;57.20;;;10.69;54.18;96846.66;5038465;28;20410;-71
2021/01/29 11:13:18;;;;;;;9.23;2.42;;;11.70;57.90;;;10.79;54.05;96833.44;5056013;28;20479;-70
2021/01/29 11:15:54;;;;;;;10.05;2.60;;;11.60;58.30;;;10.58;54.73;96850.38;5051441;28;20463;-70
2021/01/29 11:18:27;;;;;;;12.23;2.35;;;11.60;58.40;;;10.57;55.18;96845.34;5051647;28;20409;-69
2021/01/29 11:21:05;;;;;;;11.50;2.00;;;11.60;58.80;;;10.49;55.12;96830.78;5051239;28;20593;-70
2021/01/29 11:23:41;;;;;;;10.93;2.13;;;11.50;58.60;;;10.44;55.06;96842.16;5053142;28;20429;-69
2021/01/29 11:26:15;;;;;;;11.10;2.17;;;11.50;58.80;;;10.42;55.04;96846.91;5052388;28;20417;-69
2021/01/29 11:29:05;;;;;;;7.85;2.35;;;11.50;59.00;;;10.35;55.60;96856.16;5056915;28;20867;-69
2021/01/29 11:31:41;;;;;;;13.02;2.40;;;11.40;59.00;;;10.39;55.47;96852.72;5035464;28;20464;-70
2021/01/29 11:34:22;;;;;;;10.25;2.50;;;11.40;59.20;;;10.35;55.52;96850.88;5032304;28;20431;-69
2021/01/29 11:37:05;;;;;;;11.17;2.43;;;11.40;59.40;;;10.33;55.95;96850.34;5031688;28;20503;-69